Time;durP1;ratioP1;P1;durP2;ratioP2;P2;SDS_P1;SDS_P2;PMS_P1;PMS_P2;Temp;Humidity;BMP_temperature;BMP_pressure;BME280_temperature;BME280_humidity;BME280_pressure;Samples;Min_cycle;Max_cycle;Signal;HPM_P1;HPM_P2
2022/06/10 00:00:44;;;;;;;219.87;132.90;;;;;;;14.82;100.00;100079.83;1701451;82;21700;-58
2022/06/10 00:03:13;;;;;;;213.13;132.40;;;;;;;14.81;100.00;100078.23;1700572;84;22234;-63
2022/06/10 00:05:43;;;;;;;197.60;126.17;;;;;;;14.77;100.00;100084.09;1701128;82;21753;-58
2022/06/10 00:08:16;;;;;;;203.00;129.00;;;;;;;14.77;100.00;100084.09;1701395;82;21009;-57
2022/06/10 00:10:45;;;;;;;199.67;124.80;;;;;;;14.75;100.00;100084.84;1700825;84;21828;-58
2022/06/10 00:13:14;;;;;;;197.40;125.03;;;;;;;14.70;100.00;100084.17;1700422;82;21723;-60
2022/06/10 00:15:42;;;;;;;217.57;129.27;;;;;;;14.66;100.00;100079.06;1701342;82;22292;-56
2022/06/10 00:18:10;;;;;;;189.87;113.77;;;;;;;14.61;100.00;100084.13;1700966;82;21709;-57
2022/06/10 00:20:37;;;;;;;192.67;116.97;;;;;;;14.57;100.00;100082.44;1700723;84;21736;-64
2022/06/10 00:23:05;;;;;;;179.03;110.27;;;;;;;14.57;100.00;100086.88;1700283;83;21717;-58
2022/06/10 00:25:33;;;;;;;168.03;103.80;;;;;;;14.58;100.00;100085.38;1703105;82;21863;-56
2022/06/10 00:28:00;;;;;;;161.20;100.50;;;;;;;14.57;100.00;100085.57;1701379;84;21794;-57
2022/06/10 00:30:29;;;;;;;151.77;96.57;;;;;;;14.55;100.00;100091.55;1700863;82;21783;-56
2022/06/10 00:32:57;;;;;;;163.40;99.50;;;;;;;14.53;100.00;100081.25;1700465;82;21755;-57
2022/06/10 00:35:24;;;;;;;145.27;93.60;;;;;;;14.46;100.00;100084.91;1701177;82;22144;-57
2022/06/10 00:37:53;;;;;;;150.57;90.53;;;;;;;14.46;100.00;100084.91;1701121;84;22537;-57
2022/06/10 00:40:25;;;;;;;152.47;95.10;;;;;;;14.49;100.00;100091.05;1701577;82;22154;-58
2022/06/10 00:42:56;;;;;;;149.80;90.60;;;;;;;14.49;100.00;100089.73;1700742;84;21710;-56
2022/06/10 00:46:01;;;;;;;145.87;83.93;;;;;;;14.48;100.00;100090.77;1700999;82;21713;-59
2022/06/10 00:49:08;;;;;;;154.50;98.17;;;;;;;14.49;100.00;100099.75;1701415;84;22270;-64
2022/06/10 00:51:42;;;;;;;161.60;104.83;;;;;;;14.45;100.00;100097.22;1700397;84;22306;-64
2022/06/10 00:54:29;;;;;;;172.30;109.83;;;;;;;14.41;100.00;100103.11;1700100;84;21764;-60
2022/06/10 00:57:06;;;;;;;170.90;109.17;;;;;;;14.36;100.00;100098.51;1692001;82;21645;-56
2022/06/10 00:59:44;;;;;;;150.13;98.43;;;;;;;14.34;100.00;100101.84;1701224;82;22735;-65
2022/06/10 01:02:18;;;;;;;155.17;99.60;;;;;;;14.33;100.00;100101.03;1701524;82;21831;-57
2022/06/10 01:04:45;;;;;;;162.60;98.37;;;;;;;14.30;100.00;100103.27;1679537;84;21720;-67
2022/06/10 01:07:16;;;;;;;165.97;96.67;;;;;;;14.30;100.00;100103.27;1700855;82;22347;-56
2022/06/10 01:09:43;;;;;;;157.67;96.08;;;;;;;14.30;100.00;100106.70;1700276;82;21781;-57
2022/06/10 01:12:49;;;;;;;155.80;96.57;;;;;;;14.31;100.00;100109.61;1670587;84;21078;-57
2022/06/10 01:15:54;;;;;;;144.57;89.33;;;;;;;14.32;100.00;100111.23;1681878;84;22585;-57
2022/06/10 01:18:36;;;;;;;142.03;88.13;;;;;;;14.32;100.00;100119.10;1696260;82;22185;-59
2022/06/10 01:21:42;;;;;;;145.33;90.63;;;;;;;14.22;100.00;100116.13;1701524;82;21725;-57
2022/06/10 01:24:30;;;;;;;146.13;89.40;;;;;;;14.17;100.00;100116.44;1701224;82;21269;-57
2022/06/10 01:30:34;;;;;;;156.07;96.67;;;;;;;14.23;100.00;100117.72;1701555;82;21538;-58
2022/06/10 01:33:22;;;;;;;160.97;97.20;;;;;;;14.50;100.00;100116.28;1701223;82;22065;-58
2022/06/10 01:36:06;;;;;;;156.13;92.53;;;;;;;14.50;100.00;100116.28;1700413;84;22313;-60
2022/06/10 01:39:05;;;;;;;172.27;98.50;;;;;;;14.86;100.00;100118.77;1701328;84;21787;-57
2022/06/10 01:41:56;;;;;;;165.63;95.73;;;;;;;14.86;100.00;100118.77;1645879;84;21767;-60
2022/06/10 01:44:29;;;;;;;156.50;93.37;;;;;;;15.01;100.00;100119.25;1701346;82;21812;-67
2022/06/10 01:47:11;;;;;;;141.90;87.90;;;;;;;15.13;100.00;100118.83;1700786;82;22080;-66
2022/06/10 01:49:46;;;;;;;140.52;81.75;;;;;;;15.23;100.00;100120.45;1701443;84;21760;-58
2022/06/10 01:52:25;;;;;;;142.13;79.37;;;;;;;15.41;100.00;100122.80;1700407;82;21041;-60
2022/06/10 01:55:06;;;;;;;142.90;82.80;;;;;;;15.55;100.00;100112.45;1699271;84;21827;-61
2022/06/10 01:57:59;;;;;;;147.70;86.10;;;;;;;15.76;100.00;100112.05;1699745;84;26454;-67
2022/06/10 02:00:29;;;;;;;144.63;84.30;;;;;;;16.14;100.00;100120.66;1701438;82;21914;-58
2022/06/10 02:03:15;;;;;;;135.53;78.53;;;;;;;16.56;100.00;100118.87;1667786;84;21249;-57
2022/06/10 02:05:47;;;;;;;129.67;77.47;;;;;;;16.96;100.00;100116.94;1698897;82;21493;-64
2022/06/10 02:08:31;;;;;;;120.93;73.13;;;;;;;17.41;100.00;100118.99;1699587;82;21841;-59
2022/06/10 02:11:15;;;;;;;117.37;73.80;;;;;;;17.80;100.00;100116.64;1657540;84;21537;-59
2022/06/10 02:13:56;;;;;;;119.27;71.50;;;;;;;18.13;100.00;100112.80;1697259;82;21995;-57
2022/06/10 02:16:26;;;;;;;;;;;;;;;18.53;100.00;100113.25;1701349;82;21872;-62
2022/06/10 02:19:26;;;;;;;144.47;85.13;;;;;;;18.94;100.00;100122.65;1698945;82;20376;-59
2022/06/10 02:22:02;;;;;;;140.27;85.70;;;;;;;19.29;100.00;100116.80;1699002;82;21121;-58
2022/06/10 02:24:34;;;;;;;142.23;88.07;;;;;;;19.68;99.20;100120.22;1699157;82;21165;-60
2022/06/10 02:27:05;;;;;;;136.93;85.43;;;;;;;20.06;93.59;100113.24;1698998;82;21397;-58
2022/06/10 02:29:36;;;;;;;;;;;;;;;20.37;91.13;100119.09;1699212;82;22452;-60
2022/06/10 02:32:05;;;;;;;130.93;86.10;;;;;;;20.72;88.83;100118.36;1699349;82;20157;-57
2022/06/10 02:34:34;;;;;;;124.30;86.00;;;;;;;21.09;85.63;100120.48;1705001;82;21528;-57
2022/06/10 02:37:24;;;;;;;139.80;87.50;;;;;;;21.41;81.31;100125.48;1699111;82;21941;-58
2022/06/10 02:40:24;;;;;;;124.15;83.55;;;;;;;21.73;77.57;100129.31;1704929;82;21141;-57
2022/06/10 02:43:06;;;;;;;118.73;82.87;;;;;;;22.15;74.54;100130.52;1681666;82;21887;-61
2022/06/10 02:46:15;;;;;;;115.10;82.77;;;;;;;22.79;70.32;100133.23;1698755;82;20994;-59
2022/06/10 02:49:07;;;;;;;116.90;83.53;;;;;;;23.41;68.03;100137.42;1698678;84;22386;-58
2022/06/10 02:51:36;;;;;;;123.87;86.13;;;;;;;24.16;64.97;100132.55;1699051;82;21915;-57
2022/06/10 02:54:16;;;;;;;110.07;81.93;;;;;;;24.73;61.53;100133.22;1698824;82;21635;-58
2022/06/10 02:56:43;;;;;;;113.67;84.43;;;;;;;25.08;58.86;100134.50;1695788;83;21863;-58
2022/06/10 03:02:14;;;;;;;104.70;76.90;;;;;;;25.62;53.34;100136.08;1699138;82;21097;-57
2022/06/10 03:04:53;;;;;;;111.50;79.57;;;;;;;25.88;51.15;100137.38;1684439;82;21133;-57
2022/06/10 03:07:54;;;;;;;107.63;73.22;;;;;;;26.10;50.40;100132.80;1688070;82;21058;-60
2022/06/10 03:10:55;;;;;;;104.75;76.67;;;;;;;26.35;48.29;100130.27;1698392;82;21841;-55
2022/06/10 03:13:39;;;;;;;101.85;78.05;;;;;;;26.46;46.97;100130.94;1698840;84;21493;-65
2022/06/10 03:16:28;;;;;;;106.15;73.42;;;;;;;26.59;46.43;100133.39;1698297;82;20959;-60
2022/06/10 03:19:25;;;;;;;95.53;69.55;;;;;;;26.83;45.82;100134.06;1688132;82;21105;-61
2022/06/10 03:22:20;;;;;;;88.90;66.12;;;;;;;27.27;45.27;100140.77;1695663;82;22073;-56
2022/06/10 03:25:02;;;;;;;89.42;65.67;;;;;;;27.74;44.40;100142.00;1689604;82;21865;-59
2022/06/10 03:27:48;;;;;;;86.37;62.35;;;;;;;28.30;44.12;100140.23;1695985;82;20952;-59
2022/06/10 03:30:19;;;;;;;77.72;60.05;;;;;;;28.93;42.57;100134.39;1699863;82;21121;-59
2022/06/10 03:32:57;;;;;;;78.05;61.37;;;;;;;29.40;41.06;100139.33;1699484;82;20944;-56
2022/06/10 03:35:49;;;;;;;80.95;59.63;;;;;;;29.60;40.49;100136.11;1710385;82;21011;-56
2022/06/10 03:38:17;;;;;;;71.07;55.43;;;;;;;29.67;39.85;100136.44;1698967;84;21623;-58
2022/06/10 03:40:52;;;;;;;77.62;59.27;;;;;;;29.88;39.02;100137.17;1699593;82;21509;-58
2022/06/10 03:43:19;;;;;;;72.58;56.02;;;;;;;30.16;38.57;100145.20;1696408;83;21071;-63
2022/06/10 03:45:59;;;;;;;70.97;55.80;;;;;;;30.64;37.52;100147.42;1699000;82;21092;-57
2022/06/10 03:48:27;;;;;;;;;;;;;;;30.93;36.48;100145.41;1701944;82;21034;-58
2022/06/10 03:50:55;;;;;;;78.12;59.88;;;;;;;30.89;36.34;100144.47;1706340;82;21288;-58
2022/06/10 03:53:24;;;;;;;78.37;61.55;;;;;;;30.92;35.60;100145.17;1699325;82;21013;-67
2022/06/10 03:55:52;;;;;;;75.70;60.12;;;;;;;30.92;35.09;100140.58;1699982;82;21082;-57
2022/06/10 03:58:20;;;;;;;80.07;60.85;;;;;;;30.93;35.23;100139.45;1700348;82;21051;-55
2022/06/10 04:00:47;;;;;;;77.17;60.70;;;;;;;31.10;34.69;100144.53;1692902;82;21584;-55
2022/06/10 04:03:14;;;;;;;76.87;57.20;;;;;;;31.16;33.28;100141.34;1700211;82;21783;-63
2022/06/10 04:05:41;;;;;;;73.52;56.75;;;;;;;31.04;33.77;100138.55;1705204;82;21096;-57
2022/06/10 04:08:10;;;;;;;64.90;51.80;;;;;;;31.08;33.43;100140.83;1717862;82;20962;-55
2022/06/10 04:10:38;;;;;;;74.40;57.27;;;;;;;31.11;34.51;100144.23;1711797;82;22243;-62
2022/06/10 04:13:07;;;;;;;70.90;55.70;;;;;;;31.29;33.48;100133.36;1710215;83;21058;-62
2022/06/10 04:15:35;;;;;;;65.32;53.17;;;;;;;31.28;33.57;100137.95;1709060;82;21717;-62
2022/06/10 04:18:04;;;;;;;62.55;51.75;;;;;;;31.31;33.33;100135.21;1709583;82;21147;-61
2022/06/10 04:20:35;;;;;;;57.10;47.95;;;;;;;31.14;33.79;100133.34;1709761;82;21091;-60
2022/06/10 04:23:03;;;;;;;60.47;50.03;;;;;;;31.16;34.12;100137.86;1709925;82;21085;-60
2022/06/10 04:25:31;;;;;;;60.80;49.05;;;;;;;31.42;34.07;100141.25;1708525;82;21098;-67
2022/06/10 04:27:58;;;;;;;63.20;50.40;;;;;;;31.58;33.75;100144.72;1709419;82;21365;-61
2022/06/10 04:30:33;;;;;;;63.63;46.90;;;;;;;31.65;33.64;100144.44;1709771;82;21048;-57
2022/06/10 04:33:01;;;;;;;65.42;48.55;;;;;;;31.65;33.16;100147.12;1709682;82;21570;-57
2022/06/10 04:35:29;;;;;;;54.93;44.77;;;;;;;31.38;33.98;100151.66;1708483;82;21060;-60
2022/06/10 04:37:56;;;;;;;62.70;49.40;;;;;;;31.33;34.07;100152.63;1709753;82;21604;-58
2022/06/10 04:40:26;;;;;;;55.40;44.67;;;;;;;31.46;34.27;100161.03;1709741;82;21336;-57
2022/06/10 04:42:54;;;;;;;57.53;45.28;;;;;;;31.78;33.85;100154.72;1709400;82;20955;-58
2022/06/10 04:45:25;;;;;;;66.87;48.55;;;;;;;32.08;33.48;100162.78;1708730;82;21112;-66
2022/06/10 04:47:55;;;;;;;59.20;45.43;;;;;;;32.32;32.81;100164.81;1709294;82;22476;-57
2022/06/10 04:50:25;;;;;;;61.10;48.50;;;;;;;32.70;32.32;100170.81;1709879;82;21532;-58
2022/06/10 04:52:52;;;;;;;60.08;48.17;;;;;;;32.92;31.86;100168.27;1709552;83;21163;-58
2022/06/10 04:55:19;;;;;;;64.37;48.23;;;;;;;32.94;31.88;100165.25;1708825;82;21140;-60
2022/06/10 04:57:47;;;;;;;60.67;46.60;;;;;;;33.11;31.80;100161.55;1697667;82;21057;-60
2022/06/10 05:00:20;;;;;;;57.38;47.75;;;;;;;33.11;31.09;100167.77;1718505;82;20959;-60
2022/06/10 05:02:48;;;;;;;64.22;49.42;;;;;;;33.16;31.46;100170.80;1697971;83;20974;-60
2022/06/10 05:05:15;;;;;;;69.60;51.90;;;;;;;33.41;31.89;100170.21;1706091;83;21172;-66
2022/06/10 05:07:43;;;;;;;66.42;50.17;;;;;;;33.78;30.52;100170.20;1700503;84;21449;-57
2022/06/10 05:10:13;;;;;;;59.95;50.45;;;;;;;33.99;30.08;100164.10;1701353;84;21057;-56
2022/06/10 05:12:44;;;;;;;64.87;51.85;;;;;;;34.14;28.98;100170.14;1700715;84;21133;-58
2022/06/10 05:15:13;;;;;;;68.50;51.68;;;;;;;34.18;28.94;100170.81;1700445;84;21429;-60
2022/06/10 05:17:42;;;;;;;69.60;51.75;;;;;;;34.17;29.14;100177.33;1701286;84;21255;-60
2022/06/10 05:20:12;;;;;;;61.05;47.90;;;;;;;34.28;29.69;100175.70;1701267;84;20982;-57
2022/06/10 05:22:39;;;;;;;63.48;50.85;;;;;;;34.54;28.59;100175.28;1671602;84;21544;-58
2022/06/10 05:25:08;;;;;;;60.78;48.10;;;;;;;34.82;29.52;100176.60;1700942;84;21101;-63
2022/06/10 05:27:35;;;;;;;62.13;50.12;;;;;;;35.21;27.61;100176.22;1700784;84;21482;-57
2022/06/10 05:30:04;;;;;;;71.57;53.40;;;;;;;35.10;28.02;100174.61;1701746;82;21246;-60
2022/06/10 05:32:31;;;;;;;68.02;53.50;;;;;;;35.01;28.18;100174.59;1701441;82;21078;-60
2022/06/10 05:34:59;;;;;;;64.25;51.13;;;;;;;35.16;27.51;100171.63;1701739;84;20982;-59
2022/06/10 05:37:27;;;;;;;72.22;52.73;;;;;;;35.36;26.84;100169.22;1700336;82;21070;-64
2022/06/10 05:39:55;;;;;;;71.22;56.50;;;;;;;35.48;26.68;100177.80;1701593;82;21122;-60
2022/06/10 05:42:22;;;;;;;75.52;57.33;;;;;;;35.34;27.19;100175.54;1701610;82;21262;-60
2022/06/10 05:44:50;;;;;;;72.45;56.50;;;;;;;35.48;27.53;100175.09;1701896;82;21034;-59
2022/06/10 05:47:21;;;;;;;78.27;58.00;;;;;;;35.52;26.11;100180.83;1701453;84;21583;-66
2022/06/10 05:49:52;;;;;;;80.05;59.13;;;;;;;35.43;27.02;100174.80;1690766;82;21814;-60
2022/06/10 05:52:21;;;;;;;75.80;59.27;;;;;;;35.48;27.26;100173.16;1702175;84;27274;-59
2022/06/10 05:54:49;;;;;;;76.70;60.35;;;;;;;35.97;26.61;100169.98;1690867;82;21215;-59
2022/06/10 05:57:16;;;;;;;76.07;59.15;;;;;;;36.33;25.57;100174.77;1700952;82;21176;-63
2022/06/10 05:59:44;;;;;;;75.97;59.10;;;;;;;36.30;24.92;100171.44;1702174;82;22053;-56
2022/06/10 06:02:13;;;;;;;84.90;64.65;;;;;;;36.03;25.24;100168.59;1702215;82;21597;-55
2022/06/10 06:04:40;;;;;;;76.65;59.08;;;;;;;35.92;25.74;100172.20;1701808;84;21077;-55
2022/06/10 06:07:08;;;;;;;69.42;54.80;;;;;;;35.81;25.94;100180.11;1705508;84;21169;-62
2022/06/10 06:09:35;;;;;;;82.17;60.30;;;;;;;35.61;25.77;100179.27;1704633;84;21451;-62
2022/06/10 06:12:06;;;;;;;83.42;65.17;;;;;;;35.65;26.18;100176.64;1707605;84;21545;-61
2022/06/10 06:14:33;;;;;;;77.72;57.15;;;;;;;35.79;25.87;100176.95;1707326;82;21033;-62
2022/06/10 06:17:01;;;;;;;77.05;58.17;;;;;;;35.98;26.01;100165.33;1706884;82;21559;-69
2022/06/10 06:19:30;;;;;;;69.32;58.33;;;;;;;36.04;25.27;100167.44;1707472;82;21820;-62
2022/06/10 06:21:59;;;;;;;72.08;57.60;;;;;;;35.97;25.21;100168.62;1698435;82;21695;-62
2022/06/10 06:24:27;;;;;;;72.92;56.58;;;;;;;36.01;25.16;100169.50;1707495;82;21129;-59
2022/06/10 06:26:54;;;;;;;75.85;59.48;;;;;;;35.97;25.54;100167.84;1706015;82;21129;-70
2022/06/10 06:29:23;;;;;;;79.42;56.85;;;;;;;35.91;25.03;100170.61;1706810;82;21398;-64
2022/06/10 06:31:52;;;;;;;76.07;56.80;;;;;;;35.79;25.86;100164.17;1703909;82;21138;-62
2022/06/10 06:34:21;;;;;;;67.55;53.83;;;;;;;35.89;25.63;100167.48;1706967;82;21010;-60
2022/06/10 06:36:50;;;;;;;57.95;49.05;;;;;;;35.83;25.82;100166.96;1701820;82;20952;-61
2022/06/10 06:39:18;;;;;;;66.40;50.67;;;;;;;35.94;25.71;100165.83;1706580;84;20958;-60
2022/06/10 06:41:45;;;;;;;64.37;51.53;;;;;;;35.95;25.84;100161.42;1707070;82;21919;-57
2022/06/10 06:44:13;;;;;;;56.65;44.03;;;;;;;36.00;25.67;100165.23;1707561;82;21111;-55
2022/06/10 06:46:41;;;;;;;58.52;42.40;;;;;;;36.08;25.26;100158.59;1706861;84;20994;-55
2022/06/10 06:49:13;;;;;;;56.88;44.58;;;;;;;35.99;25.51;100158.24;1705966;82;21022;-64
2022/06/10 06:51:42;;;;;;;55.20;42.38;;;;;;;36.02;25.82;100159.44;1706918;84;21092;-57
2022/06/10 06:54:09;;;;;;;50.30;38.45;;;;;;;36.01;25.23;100162.72;1706756;82;20947;-57
2022/06/10 06:56:36;;;;;;;46.35;38.10;;;;;;;35.89;25.57;100158.77;1706771;84;21375;-58
2022/06/10 06:59:05;;;;;;;46.55;38.40;;;;;;;36.09;25.97;100158.80;1706771;84;21028;-65
2022/06/10 07:01:32;;;;;;;44.50;34.48;;;;;;;36.32;25.25;100152.06;1706683;82;21073;-57
2022/06/10 07:03:59;;;;;;;39.53;31.65;;;;;;;36.59;24.25;100159.17;1707121;84;21137;-57
2022/06/10 07:06:27;;;;;;;41.30;32.93;;;;;;;36.69;23.82;100154.51;1703620;82;21496;-59
2022/06/10 07:08:54;;;;;;;42.45;34.03;;;;;;;36.90;24.07;100154.09;1700987;84;21164;-57
2022/06/10 07:11:21;;;;;;;42.60;33.48;;;;;;;37.16;24.65;100153.91;1700814;84;20891;-60
2022/06/10 07:13:49;;;;;;;34.78;26.05;;;;;;;37.30;23.53;100160.15;1701115;82;21022;-56
2022/06/10 07:16:18;;;;;;;29.23;23.85;;;;;;;37.18;22.84;100156.48;1706952;82;21360;-57
2022/06/10 07:18:46;;;;;;;20.95;16.65;;;;;;;37.18;23.04;100157.84;1700791;84;21075;-57
2022/06/10 07:21:13;;;;;;;16.37;12.60;;;;;;;37.11;22.16;100156.38;1710492;82;21374;-59
2022/06/10 07:23:40;;;;;;;20.80;14.78;;;;;;;37.13;21.53;100162.25;1700798;82;21832;-63
2022/06/10 07:26:08;;;;;;;19.60;15.70;;;;;;;37.15;21.59;100161.87;1700993;84;20984;-58
2022/06/10 07:28:36;;;;;;;16.05;10.75;;;;;;;37.06;21.65;100165.42;1700723;84;21141;-56
2022/06/10 07:31:03;;;;;;;14.75;11.03;;;;;;;36.75;21.07;100158.50;1660293;84;21094;-58
2022/06/10 07:33:30;;;;;;;11.83;7.92;;;;;;;36.61;21.15;100160.19;1671582;84;21542;-57
2022/06/10 07:35:57;;;;;;;12.68;8.83;;;;;;;36.51;20.63;100161.55;1671173;85;21401;-57
2022/06/10 07:38:27;;;;;;;11.38;7.40;;;;;;;36.39;20.63;100154.91;1671257;84;32849;-57
2022/06/10 07:43:42;;;;;;;9.03;6.45;;;;;;;36.19;20.62;100160.37;1671864;84;22023;-56
2022/06/10 07:46:10;;;;;;;16.67;9.95;;;;;;;35.96;19.57;100158.92;1671656;85;21454;-58
2022/06/10 07:48:37;;;;;;;14.75;10.93;;;;;;;35.73;21.33;100166.19;1671205;84;21072;-58
2022/06/10 07:52:19;;;;;;;12.35;8.93;;;;;;;35.74;21.50;100153.62;1786609;78;21993;-58
2022/06/10 07:54:46;;;;;;;12.80;9.05;;;;;;;35.88;21.57;100153.14;1750338;80;21810;-55
2022/06/10 07:57:13;;;;;;;14.45;9.48;;;;;;;35.98;21.13;100153.13;1737174;81;21260;-57
2022/06/10 07:59:42;;;;;;;12.70;9.10;;;;;;;36.03;21.07;100158.31;1735241;81;20974;-58
2022/06/10 08:02:09;;;;;;;14.35;8.50;;;;;;;36.35;21.20;100152.13;1740408;81;20974;-62
2022/06/10 08:04:36;;;;;;;13.40;9.35;;;;;;;36.61;20.18;100154.75;1733260;81;21064;-56
2022/06/10 08:07:04;;;;;;;15.80;10.23;;;;;;;36.46;20.58;100150.97;1727556;81;21002;-55
2022/06/10 08:09:32;;;;;;;15.53;10.08;;;;;;;36.48;20.09;100154.12;1742111;81;21146;-56
2022/06/10 08:11:59;;;;;;;16.55;9.90;;;;;;;36.30;20.61;100149.72;1744009;81;21108;-55
2022/06/10 08:14:26;;;;;;;13.53;9.30;;;;;;;35.97;20.36;100153.70;1736000;81;21489;-56
2022/06/10 08:16:54;;;;;;;13.95;10.10;;;;;;;35.78;21.55;100151.77;1742439;81;21970;-55
2022/06/10 08:19:23;;;;;;;19.15;10.28;;;;;;;35.85;21.62;100147.06;1730163;81;20966;-62
2022/06/10 08:24:36;;;;;;;12.13;9.85;;;;;;;36.30;21.45;100140.22;1737529;81;21013;-56
2022/06/10 08:27:05;;;;;;;12.58;9.28;;;;;;;36.30;20.63;100145.65;1753001;81;20983;-55
2022/06/10 08:29:33;;;;;;;12.03;8.78;;;;;;;35.87;21.03;100142.63;1738082;81;21081;-57
2022/06/10 08:32:00;;;;;;;11.83;8.53;;;;;;;35.79;21.33;100154.69;1731527;81;21685;-60
2022/06/10 08:34:27;;;;;;;13.32;8.88;;;;;;;35.59;21.96;100143.61;1735935;81;21233;-55
2022/06/10 08:36:56;;;;;;;10.40;7.78;;;;;;;35.49;21.76;100142.22;1737177;81;20932;-57
2022/06/10 08:39:23;;;;;;;12.73;8.70;;;;;;;35.62;21.93;100139.41;1733703;81;20993;-56
2022/06/10 08:42:21;;;;;;;13.43;8.35;;;;;;;35.83;21.98;100138.48;1727813;81;20959;-57
2022/06/10 08:44:56;;;;;;;12.43;9.28;;;;;;;35.89;21.36;100141.71;1711417;83;20979;-63
2022/06/10 08:47:37;;;;;;;12.73;9.55;;;;;;;35.95;21.71;100140.27;1688654;83;21883;-57
2022/06/10 08:50:16;;;;;;;13.83;10.48;;;;;;;35.82;21.20;100131.50;1701980;83;20971;-57
2022/06/10 08:52:54;;;;;;;11.45;7.60;;;;;;;35.77;21.90;100132.58;1668380;84;20926;-57
2022/06/10 08:55:51;;;;;;;7.95;6.85;;;;;;;35.94;21.91;100131.34;1700508;83;21113;-57
2022/06/10 08:58:23;;;;;;;7.47;5.35;;;;;;;36.06;21.53;100129.87;1697068;83;21313;-59
2022/06/10 09:00:52;;;;;;;6.95;4.15;;;;;;;36.16;21.98;100135.87;1701480;83;21602;-60
2022/06/10 09:03:40;;;;;;;6.17;4.75;;;;;;;36.24;21.70;100126.14;1678121;83;21054;-60
2022/06/10 09:06:18;;;;;;;5.33;4.30;;;;;;;35.97;21.02;100126.57;1703075;83;20961;-66
2022/06/10 09:08:47;;;;;;;5.80;4.12;;;;;;;35.73;21.55;100124.94;1674079;84;21609;-60
2022/06/10 09:11:37;;;;;;;5.22;4.15;;;;;;;35.47;21.30;100133.64;1683198;83;21395;-59
2022/06/10 09:14:22;;;;;;;7.40;5.35;;;;;;;35.25;22.32;100135.09;1682918;84;21438;-62
2022/06/10 09:17:03;;;;;;;8.48;6.70;;;;;;;35.21;21.41;100132.87;1689566;84;21062;-58
2022/06/10 09:19:41;;;;;;;6.42;5.10;;;;;;;34.99;21.95;100131.58;1697215;83;20959;-65
2022/06/10 09:22:21;;;;;;;5.78;4.45;;;;;;;34.99;20.92;100128.87;1692097;83;21109;-59
2022/06/10 09:25:31;;;;;;;5.90;3.67;;;;;;;34.61;21.35;100130.80;1721978;81;21020;-60
2022/06/10 09:27:59;;;;;;;4.70;3.72;;;;;;;34.33;21.46;100132.97;1715699;82;21227;-58
2022/06/10 09:30:56;;;;;;;4.12;3.30;;;;;;;34.65;21.33;100136.31;1720482;82;21143;-58
2022/06/10 09:33:57;;;;;;;9.30;5.47;;;;;;;34.85;21.58;100144.20;1700749;83;21049;-57
2022/06/10 09:36:53;;;;;;;6.58;5.78;;;;;;;34.79;20.69;100132.04;1734246;82;21686;-55
2022/06/10 09:43:29;;;;;;;5.58;4.33;;;;;;;34.54;20.87;100133.33;1737244;81;22117;-57
2022/06/10 09:46:39;;;;;;;4.85;3.90;;;;;;;34.50;20.91;100130.52;1719344;81;21081;-58
2022/06/10 09:49:49;;;;;;;4.90;3.67;;;;;;;34.88;20.59;100131.08;1718227;82;21023;-64
2022/06/10 09:52:39;;;;;;;6.10;4.37;;;;;;;34.87;20.01;100134.36;1722225;82;21024;-55
2022/06/10 09:55:36;;;;;;;5.72;4.30;;;;;;;34.48;20.27;100135.48;1718426;82;21498;-56
2022/06/10 09:58:30;;;;;;;8.70;5.10;;;;;;;34.27;21.05;100130.84;1744642;82;21125;-58
2022/06/10 10:01:27;;;;;;;5.92;4.30;;;;;;;34.26;21.02;100122.52;1739062;82;21906;-56
2022/06/10 10:04:20;;;;;;;6.50;4.55;;;;;;;34.53;21.08;100134.47;1725174;82;20938;-61
2022/06/10 10:07:11;;;;;;;7.22;4.60;;;;;;;34.84;20.18;100128.28;1742819;82;21560;-58
2022/06/10 10:10:02;;;;;;;9.10;4.00;;;;;;;35.01;20.13;100129.31;1729333;82;20979;-58
2022/06/10 10:12:45;;;;;;;7.55;3.58;;;;;;;35.31;20.07;100125.56;1729134;82;21446;-56
2022/06/10 10:15:43;;;;;;;5.92;3.40;;;;;;;35.25;19.54;100123.47;1714239;81;21451;-57
2022/06/10 10:18:39;;;;;;;6.28;3.50;;;;;;;35.10;19.86;100127.77;1728757;82;21094;-58
2022/06/10 10:21:13;;;;;;;6.22;4.65;;;;;;;35.01;19.58;100130.67;1725602;82;20998;-65
2022/06/10 10:23:43;;;;;;;7.15;4.45;;;;;;;35.21;21.12;100123.38;1745012;82;21387;-58
2022/06/10 10:26:25;;;;;;;6.03;4.55;;;;;;;35.18;20.22;100134.92;1732843;82;21238;-65
2022/06/10 10:29:13;;;;;;;6.87;4.47;;;;;;;34.81;20.24;100122.20;1745928;80;20993;-60
2022/06/10 10:31:54;;;;;;;6.72;4.85;;;;;;;34.53;20.82;100129.84;1727351;82;21449;-61
2022/06/10 10:34:24;;;;;;;6.30;4.30;;;;;;;34.48;20.85;100126.01;1727966;82;20974;-59
2022/06/10 10:36:57;;;;;;;8.18;5.58;;;;;;;34.81;20.18;100121.63;1728778;82;21008;-59
2022/06/10 10:39:38;;;;;;;7.30;5.15;;;;;;;35.23;19.95;100116.25;1728110;82;21588;-63
2022/06/10 10:42:16;;;;;;;8.55;5.78;;;;;;;35.52;20.39;100121.77;1695336;83;21469;-61
2022/06/10 10:44:45;;;;;;;7.33;5.80;;;;;;;35.54;20.50;100108.08;1681180;83;21088;-60
2022/06/10 10:47:17;;;;;;;7.87;6.25;;;;;;;35.91;19.90;100124.49;1705443;83;21052;-61
2022/06/10 10:50:05;;;;;;;9.03;6.95;;;;;;;36.03;19.35;100114.33;1696658;82;21030;-61
2022/06/10 10:52:40;;;;;;;7.60;6.35;;;;;;;35.87;19.36;100107.36;1739005;82;21781;-68
2022/06/10 10:55:16;;;;;;;6.15;4.87;;;;;;;35.45;19.88;100116.16;1725657;81;21845;-60
2022/06/10 10:57:47;;;;;;;7.67;5.72;;;;;;;35.29;19.77;100120.27;1732930;82;21562;-58
2022/06/10 11:00:22;;;;;;;7.42;5.53;;;;;;;35.23;19.67;100123.02;1724182;82;21026;-57
2022/06/10 11:02:55;;;;;;;5.35;4.17;;;;;;;35.32;20.29;100113.57;1692997;84;21398;-56
2022/06/10 11:05:36;;;;;;;8.43;4.40;;;;;;;35.50;20.00;100114.00;1682086;83;21889;-63
2022/06/10 11:08:14;;;;;;;6.22;3.37;;;;;;;35.43;19.45;100115.74;1715126;82;21085;-65
2022/06/10 11:10:57;;;;;;;5.55;4.12;;;;;;;35.35;19.25;100114.80;1739375;82;20948;-58
2022/06/10 11:13:46;;;;;;;6.42;4.92;;;;;;;35.23;19.26;100117.59;1695850;83;22085;-58
2022/06/10 11:16:34;;;;;;;7.20;4.53;;;;;;;35.14;19.85;100112.95;1702815;83;21059;-58
2022/06/10 11:19:15;;;;;;;5.45;4.70;;;;;;;34.91;20.07;100110.06;1728012;81;21432;-57
2022/06/10 11:21:56;;;;;;;7.05;5.15;;;;;;;34.76;19.44;100114.35;1703198;82;21325;-56
2022/06/10 11:24:25;;;;;;;;;;;;;;;34.59;20.24;100114.92;1725434;81;21074;-58
2022/06/10 11:26:58;;;;;;;7.30;5.12;;;;;;;34.60;20.46;100113.00;1729415;82;20184;-58
2022/06/10 11:29:25;;;;;;;7.33;5.25;;;;;;;34.57;20.05;100114.47;1708052;82;21375;-58
2022/06/10 11:31:57;;;;;;;6.75;5.40;;;;;;;34.61;20.41;100112.64;1730074;82;21804;-65
2022/06/10 11:34:39;;;;;;;7.53;5.20;;;;;;;34.99;19.59;100107.73;1706806;82;21803;-57
2022/06/10 11:37:34;;;;;;;9.70;5.20;;;;;;;35.36;19.54;100094.68;1720624;82;21351;-58
2022/06/10 11:40:18;;;;;;;7.22;5.03;;;;;;;35.53;19.48;100094.86;1722559;81;21808;-65
2022/06/10 11:42:56;;;;;;;7.22;5.37;;;;;;;35.49;19.66;100097.50;1731482;81;21128;-61
2022/06/10 11:45:34;;;;;;;9.25;5.92;;;;;;;35.27;19.11;100098.14;1709031;82;21137;-61
2022/06/10 11:48:31;;;;;;;9.23;6.50;;;;;;;35.18;18.87;100098.91;1715816;82;20948;-60
2022/06/10 11:51:12;;;;;;;7.75;6.33;;;;;;;34.96;18.04;100098.95;1729581;82;21161;-59
2022/06/10 11:54:26;;;;;;;9.88;6.65;;;;;;;34.75;18.31;100101.95;1731542;81;21312;-58
2022/06/10 12:00:32;;;;;;;6.92;5.55;;;;;;;34.39;19.19;100099.09;1732594;82;21170;-61
2022/06/10 12:03:14;;;;;;;6.95;4.85;;;;;;;34.51;19.42;100091.52;1746062;82;20900;-61
2022/06/10 12:06:06;;;;;;;5.50;4.35;;;;;;;34.80;18.95;100091.63;1721658;81;21564;-58
2022/06/10 12:09:04;;;;;;;6.62;4.28;;;;;;;35.11;18.13;100085.98;1700520;83;21042;-56
2022/06/10 12:11:50;;;;;;;7.08;3.92;;;;;;;34.86;18.25;100086.17;1705613;83;21125;-59